CWAE

Whistler Airport

British Columbia, Canada
METAR CWAE 210100Z 00000KT 15SM FEW250 M01/M02 A2988 RMK CI1 LAST OBS/NEXT 211500UTC SLP143
Observed Flight Rules
Jan-21 @ 01:00 UTC (9 hours ago) Visual Flight Rules
Visibility Clouds
15 miles
  • Few at 25,000' AGL
Temperatures Readings
Current -1°C / 30°F
Dewpoint -2°C / 28°F
Humidity 93%
Altimeter 29.88" Hg
Pressure 1014.3 hPa
Elevation 658
METAR CWAE 210100Z 00000KT 15SM FEW250 M01/M02 A2988 RMK CI1 LAST OBS/NEXT 211500UTC SLP143
Observed Flight Rules
Jan-21 @ 01:00 UTC
(9 hours ago)
VFR
Clouds
  • Few at 25,000' AGL
Temperature Dewpoint
-1°C / 30°F -2°C / 28°F
Humidity Altimeter Pressure
93% 29.88" Hg 1014.3 hPa